Hosston, Louisiana
Current Conditions -  °F | °C
As of 7:53 AM on Wednesday 28 Jan 2015 (Local Time) from KDTN Reporting Station
Clear Clear  
Wind Chill: 44°   Ceiling: Unl
Heat Index: 47°   Visibility: 10mi
Dew Point: 36°   Wind: 7mph
Humidity: 66%   Direction: 140°SE
Pressure: 30.19"   Gusts: NA
Location:  32.89°N, 93.88°W
Report Text: KDTN 281353Z 14006KT 10SM CLR 08/02 A3019 RMK AO2 SLP224 T00830022
Loading
Personal Weather Stations






























Interactive Weather Map New forecast layout! Learn more

10-Day Weather Forecast

Advertisements
Track Severe Weather on mobile